Terminal Aerodrome Forecast
Issued by NWS

Home | Current Version | Previous Version | Text Only | Print | Product List | Glossary Off
Versions: 1 2 3 4 5 6 7 8 9 10 11 12 13 14 15

000
FTUS43 KTOP 230520
TAFMHK
TAF
KMHK 230520Z 2306/2406 24006KT P6SM BKN060
     FM230700 28005KT P6SM VCSH BKN050
     FM231000 34008KT P6SM VCSH BKN060
     FM231300 35013KT P6SM BKN100=

USA.gov is the U.S. government's official web portal to all federal, state and local government web resources and services.